sensor_id;sensor_type;location;lat;lon;timestamp;P1;durP1;ratioP1;P2;durP2;ratioP2
7108;SDS011;29079;41.930;25.558;2022-07-12T00:00:48;2.78;;;2.20;;
7108;SDS011;29079;41.930;25.558;2022-07-12T00:03:18;3.70;;;2.90;;
7108;SDS011;29079;41.930;25.558;2022-07-12T00:05:48;4.05;;;1.92;;
7108;SDS011;29079;41.930;25.558;2022-07-12T00:08:19;3.13;;;2.15;;
7108;SDS011;29079;41.930;25.558;2022-07-12T00:10:49;3.05;;;2.10;;
7108;SDS011;29079;41.930;25.558;2022-07-12T00:13:19;2.65;;;2.00;;
7108;SDS011;29079;41.930;25.558;2022-07-12T00:15:52;2.90;;;2.03;;
7108;SDS011;29079;41.930;25.558;2022-07-12T00:18:22;3.25;;;2.20;;
7108;SDS011;29079;41.930;25.558;2022-07-12T00:20:53;5.38;;;2.20;;
7108;SDS011;29079;41.930;25.558;2022-07-12T00:23:30;2.50;;;1.98;;
7108;SDS011;29079;41.930;25.558;2022-07-12T00:26:00;6.05;;;2.15;;
7108;SDS011;29079;41.930;25.558;2022-07-12T00:28:33;2.47;;;2.20;;
7108;SDS011;29079;41.930;25.558;2022-07-12T00:31:04;3.08;;;2.25;;
7108;SDS011;29079;41.930;25.558;2022-07-12T00:33:34;2.88;;;2.30;;
7108;SDS011;29079;41.930;25.558;2022-07-12T00:36:05;5.07;;;2.22;;
7108;SDS011;29079;41.930;25.558;2022-07-12T00:38:35;4.53;;;2.50;;
7108;SDS011;29079;41.930;25.558;2022-07-12T00:41:05;4.57;;;2.70;;
7108;SDS011;29079;41.930;25.558;2022-07-12T00:43:36;2.55;;;1.95;;
7108;SDS011;29079;41.930;25.558;2022-07-12T00:46:07;4.32;;;2.30;;
7108;SDS011;29079;41.930;25.558;2022-07-12T00:48:38;4.30;;;2.38;;
7108;SDS011;29079;41.930;25.558;2022-07-12T00:51:08;2.33;;;2.13;;
7108;SDS011;29079;41.930;25.558;2022-07-12T00:53:39;3.28;;;2.03;;
7108;SDS011;29079;41.930;25.558;2022-07-12T00:56:10;2.55;;;2.13;;
7108;SDS011;29079;41.930;25.558;2022-07-12T00:58:42;2.50;;;2.30;;
7108;SDS011;29079;41.930;25.558;2022-07-12T01:01:14;2.60;;;1.90;;
7108;SDS011;29079;41.930;25.558;2022-07-12T01:03:45;5.13;;;2.40;;
7108;SDS011;29079;41.930;25.558;2022-07-12T01:06:15;2.88;;;2.50;;
7108;SDS011;29079;41.930;25.558;2022-07-12T01:08:47;3.75;;;2.15;;
7108;SDS011;29079;41.930;25.558;2022-07-12T01:11:17;2.92;;;2.00;;
7108;SDS011;29079;41.930;25.558;2022-07-12T01:13:49;6.10;;;2.65;;
7108;SDS011;29079;41.930;25.558;2022-07-12T01:16:21;2.50;;;2.30;;
7108;SDS011;29079;41.930;25.558;2022-07-12T01:18:52;4.78;;;2.25;;
7108;SDS011;29079;41.930;25.558;2022-07-12T01:21:22;3.92;;;2.58;;
7108;SDS011;29079;41.930;25.558;2022-07-12T01:23:56;3.90;;;2.53;;
7108;SDS011;29079;41.930;25.558;2022-07-12T01:26:26;3.38;;;2.30;;
7108;SDS011;29079;41.930;25.558;2022-07-12T01:28:57;2.40;;;2.28;;
7108;SDS011;29079;41.930;25.558;2022-07-12T01:31:28;3.55;;;2.38;;
7108;SDS011;29079;41.930;25.558;2022-07-12T01:33:59;2.80;;;2.50;;
7108;SDS011;29079;41.930;25.558;2022-07-12T01:36:29;3.13;;;2.80;;
7108;SDS011;29079;41.930;25.558;2022-07-12T01:39:00;2.65;;;2.45;;
7108;SDS011;29079;41.930;25.558;2022-07-12T01:41:30;2.70;;;2.50;;
7108;SDS011;29079;41.930;25.558;2022-07-12T01:44:01;4.50;;;2.80;;
7108;SDS011;29079;41.930;25.558;2022-07-12T01:46:31;6.38;;;2.60;;
7108;SDS011;29079;41.930;25.558;2022-07-12T01:49:02;3.22;;;2.42;;
7108;SDS011;29079;41.930;25.558;2022-07-12T01:51:32;3.08;;;2.78;;
7108;SDS011;29079;41.930;25.558;2022-07-12T01:54:04;3.65;;;2.67;;
7108;SDS011;29079;41.930;25.558;2022-07-12T01:56:34;3.35;;;2.85;;
7108;SDS011;29079;41.930;25.558;2022-07-12T01:59:05;2.83;;;2.63;;
7108;SDS011;29079;41.930;25.558;2022-07-12T02:01:36;4.22;;;2.90;;
7108;SDS011;29079;41.930;25.558;2022-07-12T02:04:08;3.08;;;2.80;;
7108;SDS011;29079;41.930;25.558;2022-07-12T02:06:38;5.00;;;3.05;;
7108;SDS011;29079;41.930;25.558;2022-07-12T02:09:11;3.55;;;3.15;;
7108;SDS011;29079;41.930;25.558;2022-07-12T02:11:41;6.03;;;4.03;;
7108;SDS011;29079;41.930;25.558;2022-07-12T02:14:12;3.53;;;3.20;;
7108;SDS011;29079;41.930;25.558;2022-07-12T02:16:43;3.67;;;3.38;;
7108;SDS011;29079;41.930;25.558;2022-07-12T02:19:13;6.78;;;3.17;;
7108;SDS011;29079;41.930;25.558;2022-07-12T02:21:44;4.95;;;3.35;;
7108;SDS011;29079;41.930;25.558;2022-07-12T02:24:15;3.47;;;3.17;;
7108;SDS011;29079;41.930;25.558;2022-07-12T02:26:45;4.40;;;3.03;;
7108;SDS011;29079;41.930;25.558;2022-07-12T02:29:16;3.22;;;2.80;;
7108;SDS011;29079;41.930;25.558;2022-07-12T02:31:46;3.15;;;2.88;;
7108;SDS011;29079;41.930;25.558;2022-07-12T02:34:16;3.35;;;2.97;;
7108;SDS011;29079;41.930;25.558;2022-07-12T02:36:46;3.33;;;2.95;;
7108;SDS011;29079;41.930;25.558;2022-07-12T02:39:18;3.10;;;2.80;;
7108;SDS011;29079;41.930;25.558;2022-07-12T02:41:47;5.90;;;3.00;;
7108;SDS011;29079;41.930;25.558;2022-07-12T02:44:18;3.72;;;3.10;;
7108;SDS011;29079;41.930;25.558;2022-07-12T02:46:48;7.85;;;4.28;;
7108;SDS011;29079;41.930;25.558;2022-07-12T02:49:18;3.30;;;3.00;;
7108;SDS011;29079;41.930;25.558;2022-07-12T02:51:48;4.63;;;3.10;;
7108;SDS011;29079;41.930;25.558;2022-07-12T02:54:19;3.78;;;3.30;;
7108;SDS011;29079;41.930;25.558;2022-07-12T02:56:49;3.67;;;3.20;;
7108;SDS011;29079;41.930;25.558;2022-07-12T02:59:19;3.80;;;3.50;;
7108;SDS011;29079;41.930;25.558;2022-07-12T03:01:49;6.60;;;3.53;;
7108;SDS011;29079;41.930;25.558;2022-07-12T03:04:19;5.03;;;3.25;;
7108;SDS011;29079;41.930;25.558;2022-07-12T03:06:50;6.32;;;3.40;;
7108;SDS011;29079;41.930;25.558;2022-07-12T03:09:21;3.28;;;2.92;;
7108;SDS011;29079;41.930;25.558;2022-07-12T03:11:52;5.10;;;3.47;;
7108;SDS011;29079;41.930;25.558;2022-07-12T03:14:22;3.55;;;3.25;;
7108;SDS011;29079;41.930;25.558;2022-07-12T03:16:53;6.00;;;3.83;;
7108;SDS011;29079;41.930;25.558;2022-07-12T03:19:23;9.23;;;3.25;;
7108;SDS011;29079;41.930;25.558;2022-07-12T03:21:52;3.15;;;2.92;;
7108;SDS011;29079;41.930;25.558;2022-07-12T03:24:24;5.38;;;2.97;;
7108;SDS011;29079;41.930;25.558;2022-07-12T03:26:54;4.95;;;3.63;;
7108;SDS011;29079;41.930;25.558;2022-07-12T03:29:24;6.38;;;3.72;;
7108;SDS011;29079;41.930;25.558;2022-07-12T03:31:54;4.63;;;3.33;;
7108;SDS011;29079;41.930;25.558;2022-07-12T03:34:24;3.42;;;3.13;;
7108;SDS011;29079;41.930;25.558;2022-07-12T03:36:54;4.40;;;4.00;;
7108;SDS011;29079;41.930;25.558;2022-07-12T03:39:26;6.05;;;4.00;;
7108;SDS011;29079;41.930;25.558;2022-07-12T03:42:02;4.93;;;3.03;;
7108;SDS011;29079;41.930;25.558;2022-07-12T03:44:33;3.38;;;3.08;;
7108;SDS011;29079;41.930;25.558;2022-07-12T03:47:03;4.35;;;3.30;;
7108;SDS011;29079;41.930;25.558;2022-07-12T03:49:33;4.88;;;3.60;;
7108;SDS011;29079;41.930;25.558;2022-07-12T03:52:03;3.50;;;3.20;;
7108;SDS011;29079;41.930;25.558;2022-07-12T03:54:36;3.95;;;3.40;;
7108;SDS011;29079;41.930;25.558;2022-07-12T03:57:06;5.57;;;3.55;;
7108;SDS011;29079;41.930;25.558;2022-07-12T03:59:45;6.28;;;3.35;;
7108;SDS011;29079;41.930;25.558;2022-07-12T04:02:15;5.53;;;4.10;;
7108;SDS011;29079;41.930;25.558;2022-07-12T04:04:45;5.03;;;3.28;;
7108;SDS011;29079;41.930;25.558;2022-07-12T04:07:15;3.75;;;3.35;;
7108;SDS011;29079;41.930;25.558;2022-07-12T04:09:47;5.80;;;3.50;;
7108;SDS011;29079;41.930;25.558;2022-07-12T04:12:18;4.40;;;4.07;;
7108;SDS011;29079;41.930;25.558;2022-07-12T04:14:48;4.47;;;3.60;;
7108;SDS011;29079;41.930;25.558;2022-07-12T04:17:18;3.55;;;3.25;;
7108;SDS011;29079;41.930;25.558;2022-07-12T04:19:48;6.97;;;3.72;;
7108;SDS011;29079;41.930;25.558;2022-07-12T04:22:19;5.75;;;3.47;;
7108;SDS011;29079;41.930;25.558;2022-07-12T04:24:50;4.30;;;3.22;;
7108;SDS011;29079;41.930;25.558;2022-07-12T04:27:20;4.28;;;3.17;;
7108;SDS011;29079;41.930;25.558;2022-07-12T04:29:50;3.67;;;3.38;;
7108;SDS011;29079;41.930;25.558;2022-07-12T04:32:20;3.05;;;2.85;;
7108;SDS011;29079;41.930;25.558;2022-07-12T04:34:50;5.35;;;3.70;;
7108;SDS011;29079;41.930;25.558;2022-07-12T04:37:20;11.13;;;3.97;;
7108;SDS011;29079;41.930;25.558;2022-07-12T04:39:52;5.20;;;3.47;;
7108;SDS011;29079;41.930;25.558;2022-07-12T04:42:22;4.63;;;3.25;;
7108;SDS011;29079;41.930;25.558;2022-07-12T04:44:53;4.80;;;3.28;;
7108;SDS011;29079;41.930;25.558;2022-07-12T04:47:23;7.35;;;3.50;;
7108;SDS011;29079;41.930;25.558;2022-07-12T04:49:53;6.80;;;3.08;;
7108;SDS011;29079;41.930;25.558;2022-07-12T04:52:23;9.73;;;4.28;;
7108;SDS011;29079;41.930;25.558;2022-07-12T04:54:55;6.63;;;3.60;;
7108;SDS011;29079;41.930;25.558;2022-07-12T04:57:25;3.17;;;2.88;;
7108;SDS011;29079;41.930;25.558;2022-07-12T04:59:55;3.90;;;3.35;;
7108;SDS011;29079;41.930;25.558;2022-07-12T05:02:25;5.22;;;2.83;;
7108;SDS011;29079;41.930;25.558;2022-07-12T05:04:55;10.82;;;3.42;;
7108;SDS011;29079;41.930;25.558;2022-07-12T05:07:25;8.45;;;4.05;;
7108;SDS011;29079;41.930;25.558;2022-07-12T05:09:57;4.80;;;3.10;;
7108;SDS011;29079;41.930;25.558;2022-07-12T05:12:30;10.38;;;4.22;;
7108;SDS011;29079;41.930;25.558;2022-07-12T05:15:01;9.10;;;4.00;;
7108;SDS011;29079;41.930;25.558;2022-07-12T05:17:31;5.93;;;3.67;;
7108;SDS011;29079;41.930;25.558;2022-07-12T05:20:01;5.32;;;3.40;;
7108;SDS011;29079;41.930;25.558;2022-07-12T05:22:31;8.68;;;3.63;;
7108;SDS011;29079;41.930;25.558;2022-07-12T05:25:03;3.85;;;3.55;;
7108;SDS011;29079;41.930;25.558;2022-07-12T05:27:34;4.90;;;3.47;;
7108;SDS011;29079;41.930;25.558;2022-07-12T05:30:05;7.00;;;3.80;;
7108;SDS011;29079;41.930;25.558;2022-07-12T05:32:36;3.97;;;3.08;;
7108;SDS011;29079;41.930;25.558;2022-07-12T05:35:06;20.48;;;5.53;;
7108;SDS011;29079;41.930;25.558;2022-07-12T05:37:37;7.78;;;3.47;;
7108;SDS011;29079;41.930;25.558;2022-07-12T05:40:09;11.68;;;3.50;;
7108;SDS011;29079;41.930;25.558;2022-07-12T05:42:40;4.07;;;3.30;;
7108;SDS011;29079;41.930;25.558;2022-07-12T05:45:10;5.45;;;3.17;;
7108;SDS011;29079;41.930;25.558;2022-07-12T05:47:40;5.70;;;2.90;;
7108;SDS011;29079;41.930;25.558;2022-07-12T05:50:10;7.53;;;3.35;;
7108;SDS011;29079;41.930;25.558;2022-07-12T05:52:40;4.03;;;3.00;;
7108;SDS011;29079;41.930;25.558;2022-07-12T05:55:29;5.28;;;3.40;;
7108;SDS011;29079;41.930;25.558;2022-07-12T05:57:59;4.55;;;2.38;;
7108;SDS011;29079;41.930;25.558;2022-07-12T06:00:31;3.80;;;3.03;;
7108;SDS011;29079;41.930;25.558;2022-07-12T06:03:02;5.57;;;2.78;;
7108;SDS011;29079;41.930;25.558;2022-07-12T06:05:32;3.20;;;2.15;;
7108;SDS011;29079;41.930;25.558;2022-07-12T06:08:02;10.35;;;2.92;;
7108;SDS011;29079;41.930;25.558;2022-07-12T06:10:34;7.18;;;2.38;;
7108;SDS011;29079;41.930;25.558;2022-07-12T06:13:05;5.38;;;2.55;;
7108;SDS011;29079;41.930;25.558;2022-07-12T06:15:36;5.00;;;2.78;;
7108;SDS011;29079;41.930;25.558;2022-07-12T06:18:06;8.60;;;3.63;;
7108;SDS011;29079;41.930;25.558;2022-07-12T06:20:37;3.38;;;2.70;;
7108;SDS011;29079;41.930;25.558;2022-07-12T06:23:07;7.50;;;2.72;;
7108;SDS011;29079;41.930;25.558;2022-07-12T06:25:39;4.50;;;2.13;;
7108;SDS011;29079;41.930;25.558;2022-07-12T06:30:41;12.07;;;3.28;;
7108;SDS011;29079;41.930;25.558;2022-07-12T06:33:11;6.40;;;3.38;;
7108;SDS011;29079;41.930;25.558;2022-07-12T06:35:41;6.25;;;3.28;;
7108;SDS011;29079;41.930;25.558;2022-07-12T06:38:11;10.07;;;3.13;;
7108;SDS011;29079;41.930;25.558;2022-07-12T06:40:43;4.60;;;2.65;;
7108;SDS011;29079;41.930;25.558;2022-07-12T06:43:13;8.38;;;2.95;;
7108;SDS011;29079;41.930;25.558;2022-07-12T06:45:43;3.10;;;2.20;;
7108;SDS011;29079;41.930;25.558;2022-07-12T06:48:13;3.63;;;1.95;;
7108;SDS011;29079;41.930;25.558;2022-07-12T06:50:43;8.60;;;2.53;;
7108;SDS011;29079;41.930;25.558;2022-07-12T06:53:14;4.22;;;3.00;;
7108;SDS011;29079;41.930;25.558;2022-07-12T06:55:46;6.82;;;2.33;;
7108;SDS011;29079;41.930;25.558;2022-07-12T06:58:16;3.63;;;2.25;;
7108;SDS011;29079;41.930;25.558;2022-07-12T07:00:46;6.35;;;2.72;;
7108;SDS011;29079;41.930;25.558;2022-07-12T07:03:16;3.42;;;1.70;;
7108;SDS011;29079;41.930;25.558;2022-07-12T07:05:46;6.75;;;1.98;;
7108;SDS011;29079;41.930;25.558;2022-07-12T07:08:16;4.28;;;2.03;;
7108;SDS011;29079;41.930;25.558;2022-07-12T07:10:48;10.48;;;2.45;;
7108;SDS011;29079;41.930;25.558;2022-07-12T07:13:18;3.00;;;1.90;;
7108;SDS011;29079;41.930;25.558;2022-07-12T07:15:48;3.65;;;2.13;;
7108;SDS011;29079;41.930;25.558;2022-07-12T07:18:18;8.15;;;1.88;;
7108;SDS011;29079;41.930;25.558;2022-07-12T07:20:48;4.05;;;1.90;;
7108;SDS011;29079;41.930;25.558;2022-07-12T07:23:18;9.85;;;2.13;;
7108;SDS011;29079;41.930;25.558;2022-07-12T07:25:50;4.35;;;2.10;;
7108;SDS011;29079;41.930;25.558;2022-07-12T07:28:20;3.58;;;1.85;;
7108;SDS011;29079;41.930;25.558;2022-07-12T07:31:10;7.20;;;2.20;;
7108;SDS011;29079;41.930;25.558;2022-07-12T07:33:39;6.10;;;1.98;;
7108;SDS011;29079;41.930;25.558;2022-07-12T07:36:09;3.45;;;1.90;;
7108;SDS011;29079;41.930;25.558;2022-07-12T07:38:39;5.13;;;2.15;;
7108;SDS011;29079;41.930;25.558;2022-07-12T07:41:11;5.43;;;2.35;;
7108;SDS011;29079;41.930;25.558;2022-07-12T07:43:42;4.38;;;2.20;;
7108;SDS011;29079;41.930;25.558;2022-07-12T07:46:12;4.53;;;2.33;;
7108;SDS011;29079;41.930;25.558;2022-07-12T07:48:42;2.95;;;2.05;;
7108;SDS011;29079;41.930;25.558;2022-07-12T07:51:12;5.22;;;2.00;;
7108;SDS011;29079;41.930;25.558;2022-07-12T07:53:42;6.35;;;1.90;;
7108;SDS011;29079;41.930;25.558;2022-07-12T07:56:14;5.40;;;2.20;;
7108;SDS011;29079;41.930;25.558;2022-07-12T07:58:44;6.40;;;2.05;;
7108;SDS011;29079;41.930;25.558;2022-07-12T08:01:14;9.13;;;2.28;;
7108;SDS011;29079;41.930;25.558;2022-07-12T08:03:44;6.15;;;2.28;;
7108;SDS011;29079;41.930;25.558;2022-07-12T08:06:14;4.35;;;2.00;;
7108;SDS011;29079;41.930;25.558;2022-07-12T08:08:44;6.30;;;2.17;;
7108;SDS011;29079;41.930;25.558;2022-07-12T08:11:36;6.50;;;2.08;;
7108;SDS011;29079;41.930;25.558;2022-07-12T08:14:07;4.65;;;2.33;;
7108;SDS011;29079;41.930;25.558;2022-07-12T08:16:38;5.15;;;2.33;;
7108;SDS011;29079;41.930;25.558;2022-07-12T08:19:09;7.88;;;3.03;;
7108;SDS011;29079;41.930;25.558;2022-07-12T08:21:39;4.18;;;1.95;;
7108;SDS011;29079;41.930;25.558;2022-07-12T08:24:09;2.65;;;2.28;;
7108;SDS011;29079;41.930;25.558;2022-07-12T08:26:40;6.20;;;2.60;;
7108;SDS011;29079;41.930;25.558;2022-07-12T08:29:11;3.25;;;2.00;;
7108;SDS011;29079;41.930;25.558;2022-07-12T08:31:41;4.50;;;2.17;;
7108;SDS011;29079;41.930;25.558;2022-07-12T08:34:11;5.97;;;2.10;;
7108;SDS011;29079;41.930;25.558;2022-07-12T08:36:41;17.48;;;3.65;;
7108;SDS011;29079;41.930;25.558;2022-07-12T08:39:11;7.38;;;2.88;;
7108;SDS011;29079;41.930;25.558;2022-07-12T08:41:43;7.78;;;2.60;;
7108;SDS011;29079;41.930;25.558;2022-07-12T08:44:13;6.93;;;2.05;;
7108;SDS011;29079;41.930;25.558;2022-07-12T08:46:43;6.55;;;2.40;;
7108;SDS011;29079;41.930;25.558;2022-07-12T08:49:15;4.55;;;2.45;;
7108;SDS011;29079;41.930;25.558;2022-07-12T08:51:45;6.63;;;2.08;;
7108;SDS011;29079;41.930;25.558;2022-07-12T08:54:16;7.05;;;2.15;;
7108;SDS011;29079;41.930;25.558;2022-07-12T08:56:48;6.60;;;2.60;;
7108;SDS011;29079;41.930;25.558;2022-07-12T08:59:19;7.75;;;3.95;;
7108;SDS011;29079;41.930;25.558;2022-07-12T09:01:51;3.03;;;2.45;;
7108;SDS011;29079;41.930;25.558;2022-07-12T09:04:22;4.18;;;1.35;;
7108;SDS011;29079;41.930;25.558;2022-07-12T09:06:54;3.45;;;2.22;;
7108;SDS011;29079;41.930;25.558;2022-07-12T09:09:26;4.82;;;2.15;;
7108;SDS011;29079;41.930;25.558;2022-07-12T09:12:01;3.65;;;2.05;;
7108;SDS011;29079;41.930;25.558;2022-07-12T09:14:33;6.97;;;2.30;;
7108;SDS011;29079;41.930;25.558;2022-07-12T09:17:04;5.05;;;1.73;;
7108;SDS011;29079;41.930;25.558;2022-07-12T09:19:41;5.50;;;2.38;;
7108;SDS011;29079;41.930;25.558;2022-07-12T09:22:24;2.13;;;1.60;;
7108;SDS011;29079;41.930;25.558;2022-07-12T09:24:54;4.55;;;2.72;;
7108;SDS011;29079;41.930;25.558;2022-07-12T09:27:25;3.35;;;1.75;;
7108;SDS011;29079;41.930;25.558;2022-07-12T09:29:55;9.98;;;3.78;;
7108;SDS011;29079;41.930;25.558;2022-07-12T09:32:27;7.05;;;3.30;;
7108;SDS011;29079;41.930;25.558;2022-07-12T09:35:14;3.13;;;1.65;;
7108;SDS011;29079;41.930;25.558;2022-07-12T09:38:07;4.07;;;3.10;;
7108;SDS011;29079;41.930;25.558;2022-07-12T09:40:38;5.20;;;3.47;;
7108;SDS011;29079;41.930;25.558;2022-07-12T09:43:10;3.33;;;2.70;;
7108;SDS011;29079;41.930;25.558;2022-07-12T09:45:42;9.40;;;1.40;;
7108;SDS011;29079;41.930;25.558;2022-07-12T09:48:13;3.25;;;1.55;;
7108;SDS011;29079;41.930;25.558;2022-07-12T09:50:44;2.72;;;1.73;;
7108;SDS011;29079;41.930;25.558;2022-07-12T09:53:19;7.03;;;2.08;;
7108;SDS011;29079;41.930;25.558;2022-07-12T09:55:51;2.20;;;2.00;;
7108;SDS011;29079;41.930;25.558;2022-07-12T09:58:30;2.30;;;1.40;;
7108;SDS011;29079;41.930;25.558;2022-07-12T10:01:02;5.85;;;1.95;;
7108;SDS011;29079;41.930;25.558;2022-07-12T10:03:34;3.42;;;1.42;;
7108;SDS011;29079;41.930;25.558;2022-07-12T10:06:06;6.60;;;1.42;;
7108;SDS011;29079;41.930;25.558;2022-07-12T10:08:38;2.40;;;1.95;;
7108;SDS011;29079;41.930;25.558;2022-07-12T10:11:08;4.88;;;1.90;;
7108;SDS011;29079;41.930;25.558;2022-07-12T10:14:03;3.80;;;1.70;;
7108;SDS011;29079;41.930;25.558;2022-07-12T10:16:34;2.53;;;2.20;;
7108;SDS011;29079;41.930;25.558;2022-07-12T10:19:20;4.50;;;2.10;;
7108;SDS011;29079;41.930;25.558;2022-07-12T10:21:51;3.50;;;1.73;;
7108;SDS011;29079;41.930;25.558;2022-07-12T10:27:27;4.95;;;2.60;;
7108;SDS011;29079;41.930;25.558;2022-07-12T10:32:47;3.53;;;1.80;;
7108;SDS011;29079;41.930;25.558;2022-07-12T10:35:18;1.98;;;1.77;;
7108;SDS011;29079;41.930;25.558;2022-07-12T10:40:46;3.42;;;1.80;;
7108;SDS011;29079;41.930;25.558;2022-07-12T10:43:26;2.63;;;1.70;;
7108;SDS011;29079;41.930;25.558;2022-07-12T10:46:23;6.35;;;2.13;;
7108;SDS011;29079;41.930;25.558;2022-07-12T10:57:49;4.75;;;2.30;;
7108;SDS011;29079;41.930;25.558;2022-07-12T11:00:21;8.18;;;2.58;;
7108;SDS011;29079;41.930;25.558;2022-07-12T11:02:53;5.97;;;2.00;;
7108;SDS011;29079;41.930;25.558;2022-07-12T11:05:24;3.45;;;1.73;;
7108;SDS011;29079;41.930;25.558;2022-07-12T11:07:56;4.28;;;1.60;;
7108;SDS011;29079;41.930;25.558;2022-07-12T11:10:26;3.97;;;1.83;;
7108;SDS011;29079;41.930;25.558;2022-07-12T11:12:57;6.80;;;2.22;;
7108;SDS011;29079;41.930;25.558;2022-07-12T11:15:27;5.20;;;1.88;;
7108;SDS011;29079;41.930;25.558;2022-07-12T11:18:00;2.65;;;1.40;;
7108;SDS011;29079;41.930;25.558;2022-07-12T11:20:30;5.78;;;1.40;;
7108;SDS011;29079;41.930;25.558;2022-07-12T11:23:00;2.70;;;1.60;;
7108;SDS011;29079;41.930;25.558;2022-07-12T11:25:30;4.75;;;1.85;;
7108;SDS011;29079;41.930;25.558;2022-07-12T11:28:00;3.70;;;1.80;;
7108;SDS011;29079;41.930;25.558;2022-07-12T11:30:31;2.95;;;1.50;;
7108;SDS011;29079;41.930;25.558;2022-07-12T11:33:02;2.65;;;1.75;;
7108;SDS011;29079;41.930;25.558;2022-07-12T11:35:32;2.70;;;1.80;;
7108;SDS011;29079;41.930;25.558;2022-07-12T11:38:02;5.40;;;2.75;;
7108;SDS011;29079;41.930;25.558;2022-07-12T11:40:33;2.45;;;1.80;;
7108;SDS011;29079;41.930;25.558;2022-07-12T11:43:03;5.20;;;2.05;;
7108;SDS011;29079;41.930;25.558;2022-07-12T11:45:34;1.50;;;1.40;;
7108;SDS011;29079;41.930;25.558;2022-07-12T11:48:05;3.85;;;1.75;;
7108;SDS011;29079;41.930;25.558;2022-07-12T11:50:37;10.88;;;2.20;;
7108;SDS011;29079;41.930;25.558;2022-07-12T11:53:15;4.88;;;1.33;;
7108;SDS011;29079;41.930;25.558;2022-07-12T11:55:48;2.72;;;1.58;;
7108;SDS011;29079;41.930;25.558;2022-07-12T11:58:19;2.60;;;1.17;;
7108;SDS011;29079;41.930;25.558;2022-07-12T12:00:50;1.60;;;1.48;;
7108;SDS011;29079;41.930;25.558;2022-07-12T12:03:23;4.93;;;1.70;;
7108;SDS011;29079;41.930;25.558;2022-07-12T12:05:54;5.95;;;1.88;;
7108;SDS011;29079;41.930;25.558;2022-07-12T12:08:25;2.03;;;1.70;;
7108;SDS011;29079;41.930;25.558;2022-07-12T12:10:56;4.35;;;1.80;;
7108;SDS011;29079;41.930;25.558;2022-07-12T12:13:28;4.85;;;1.42;;
7108;SDS011;29079;41.930;25.558;2022-07-12T12:16:00;6.78;;;1.55;;
7108;SDS011;29079;41.930;25.558;2022-07-12T12:18:33;1.85;;;1.65;;
7108;SDS011;29079;41.930;25.558;2022-07-12T12:21:05;2.67;;;1.60;;
7108;SDS011;29079;41.930;25.558;2022-07-12T12:23:37;6.05;;;1.80;;
7108;SDS011;29079;41.930;25.558;2022-07-12T12:26:10;4.73;;;1.63;;
7108;SDS011;29079;41.930;25.558;2022-07-12T12:28:45;5.72;;;1.80;;
7108;SDS011;29079;41.930;25.558;2022-07-12T12:31:17;3.13;;;2.00;;
7108;SDS011;29079;41.930;25.558;2022-07-12T12:33:50;2.55;;;1.58;;
7108;SDS011;29079;41.930;25.558;2022-07-12T12:36:22;4.25;;;1.73;;
7108;SDS011;29079;41.930;25.558;2022-07-12T12:38:54;9.75;;;1.98;;
7108;SDS011;29079;41.930;25.558;2022-07-12T12:41:26;4.13;;;1.77;;
7108;SDS011;29079;41.930;25.558;2022-07-12T12:43:58;7.65;;;1.67;;
7108;SDS011;29079;41.930;25.558;2022-07-12T12:46:42;4.57;;;1.35;;
7108;SDS011;29079;41.930;25.558;2022-07-12T12:49:15;1.55;;;1.40;;
7108;SDS011;29079;41.930;25.558;2022-07-12T12:51:52;13.65;;;3.30;;
7108;SDS011;29079;41.930;25.558;2022-07-12T12:54:33;4.70;;;1.42;;
7108;SDS011;29079;41.930;25.558;2022-07-12T12:57:05;3.78;;;1.60;;
7108;SDS011;29079;41.930;25.558;2022-07-12T12:59:36;2.65;;;1.45;;
7108;SDS011;29079;41.930;25.558;2022-07-12T13:02:07;7.25;;;1.40;;
7108;SDS011;29079;41.930;25.558;2022-07-12T13:04:39;5.53;;;1.70;;
7108;SDS011;29079;41.930;25.558;2022-07-12T13:07:09;4.68;;;1.70;;
7108;SDS011;29079;41.930;25.558;2022-07-12T13:09:41;4.13;;;1.63;;
7108;SDS011;29079;41.930;25.558;2022-07-12T13:12:11;8.55;;;4.43;;
7108;SDS011;29079;41.930;25.558;2022-07-12T13:14:42;5.38;;;1.80;;
7108;SDS011;29079;41.930;25.558;2022-07-12T13:17:12;3.05;;;1.65;;
7108;SDS011;29079;41.930;25.558;2022-07-12T13:19:44;3.53;;;1.85;;
7108;SDS011;29079;41.930;25.558;2022-07-12T13:22:22;3.63;;;1.80;;
7108;SDS011;29079;41.930;25.558;2022-07-12T13:24:52;3.42;;;1.60;;
7108;SDS011;29079;41.930;25.558;2022-07-12T13:27:22;4.13;;;1.77;;
7108;SDS011;29079;41.930;25.558;2022-07-12T13:29:52;2.88;;;1.48;;
7108;SDS011;29079;41.930;25.558;2022-07-12T13:32:22;7.63;;;2.17;;
7108;SDS011;29079;41.930;25.558;2022-07-12T13:34:54;4.88;;;1.52;;
7108;SDS011;29079;41.930;25.558;2022-07-12T13:37:24;5.43;;;2.10;;
7108;SDS011;29079;41.930;25.558;2022-07-12T13:39:54;4.82;;;1.73;;
7108;SDS011;29079;41.930;25.558;2022-07-12T13:42:42;3.17;;;1.35;;
7108;SDS011;29079;41.930;25.558;2022-07-12T13:45:17;2.17;;;1.23;;
7108;SDS011;29079;41.930;25.558;2022-07-12T13:47:48;2.90;;;1.92;;
7108;SDS011;29079;41.930;25.558;2022-07-12T13:50:21;4.82;;;1.92;;
7108;SDS011;29079;41.930;25.558;2022-07-12T13:52:59;8.70;;;2.25;;
7108;SDS011;29079;41.930;25.558;2022-07-12T13:55:29;6.35;;;1.83;;
7108;SDS011;29079;41.930;25.558;2022-07-12T13:58:00;3.45;;;1.90;;
7108;SDS011;29079;41.930;25.558;2022-07-12T14:00:30;1.67;;;1.58;;
7108;SDS011;29079;41.930;25.558;2022-07-12T14:03:00;3.63;;;1.50;;
7108;SDS011;29079;41.930;25.558;2022-07-12T14:05:32;5.03;;;1.65;;
7108;SDS011;29079;41.930;25.558;2022-07-12T14:08:02;6.50;;;1.77;;
7108;SDS011;29079;41.930;25.558;2022-07-12T14:10:33;5.20;;;2.00;;
7108;SDS011;29079;41.930;25.558;2022-07-12T14:13:05;3.95;;;2.05;;
7108;SDS011;29079;41.930;25.558;2022-07-12T14:15:36;2.85;;;1.60;;
7108;SDS011;29079;41.930;25.558;2022-07-12T14:18:06;3.33;;;1.55;;
7108;SDS011;29079;41.930;25.558;2022-07-12T14:20:38;4.47;;;2.47;;
7108;SDS011;29079;41.930;25.558;2022-07-12T14:23:08;16.25;;;3.80;;
7108;SDS011;29079;41.930;25.558;2022-07-12T14:25:41;7.22;;;1.80;;
7108;SDS011;29079;41.930;25.558;2022-07-12T14:28:11;6.72;;;1.65;;
7108;SDS011;29079;41.930;25.558;2022-07-12T14:30:41;2.58;;;1.30;;
7108;SDS011;29079;41.930;25.558;2022-07-12T14:33:12;4.60;;;1.98;;
7108;SDS011;29079;41.930;25.558;2022-07-12T14:35:44;4.78;;;1.98;;
7108;SDS011;29079;41.930;25.558;2022-07-12T14:38:14;4.13;;;1.75;;
7108;SDS011;29079;41.930;25.558;2022-07-12T14:40:45;3.95;;;1.55;;
7108;SDS011;29079;41.930;25.558;2022-07-12T14:43:15;7.82;;;1.98;;
7108;SDS011;29079;41.930;25.558;2022-07-12T14:45:48;5.82;;;1.48;;
7108;SDS011;29079;41.930;25.558;2022-07-12T14:48:18;4.68;;;2.13;;
7108;SDS011;29079;41.930;25.558;2022-07-12T14:50:49;6.15;;;2.08;;
7108;SDS011;29079;41.930;25.558;2022-07-12T14:53:21;4.10;;;1.55;;
7108;SDS011;29079;41.930;25.558;2022-07-12T14:55:52;5.25;;;1.92;;
7108;SDS011;29079;41.930;25.558;2022-07-12T14:58:22;5.97;;;1.70;;
7108;SDS011;29079;41.930;25.558;2022-07-12T15:00:52;5.53;;;2.10;;
7108;SDS011;29079;41.930;25.558;2022-07-12T15:03:22;5.10;;;1.75;;
7108;SDS011;29079;41.930;25.558;2022-07-12T15:05:53;5.13;;;2.28;;
7108;SDS011;29079;41.930;25.558;2022-07-12T15:08:23;5.05;;;2.67;;
7108;SDS011;29079;41.930;25.558;2022-07-12T15:10:53;3.17;;;2.30;;
7108;SDS011;29079;41.930;25.558;2022-07-12T15:13:24;7.20;;;1.90;;
7108;SDS011;29079;41.930;25.558;2022-07-12T15:15:55;3.53;;;1.90;;
7108;SDS011;29079;41.930;25.558;2022-07-12T15:18:25;4.03;;;1.60;;
7108;SDS011;29079;41.930;25.558;2022-07-12T15:20:57;2.33;;;1.85;;
7108;SDS011;29079;41.930;25.558;2022-07-12T15:23:27;4.53;;;2.22;;
7108;SDS011;29079;41.930;25.558;2022-07-12T15:25:58;5.38;;;1.75;;
7108;SDS011;29079;41.930;25.558;2022-07-12T15:28:28;7.63;;;1.95;;
7108;SDS011;29079;41.930;25.558;2022-07-12T15:30:58;2.95;;;2.28;;
7108;SDS011;29079;41.930;25.558;2022-07-12T15:33:28;4.13;;;2.90;;